createdAt,value
2018-01-26T00:00:19.721Z,-88
2018-01-26T00:02:46.675Z,-88
2018-01-26T00:05:13.830Z,-88
2018-01-26T00:07:41.510Z,-88
2018-01-26T00:10:08.394Z,-89
2018-01-26T00:12:35.482Z,-90
2018-01-26T00:15:03.313Z,-92
2018-01-26T00:17:30.149Z,-92
2018-01-26T00:19:57.809Z,-88
2018-01-26T00:22:25.125Z,-87
2018-01-26T00:24:53.028Z,-88
2018-01-26T00:27:24.096Z,-91
2018-01-26T00:29:51.350Z,-88
2018-01-26T00:32:23.915Z,-88
2018-01-26T00:34:52.479Z,-88
2018-01-26T00:37:19.786Z,-88
2018-01-26T00:39:48.464Z,-89
2018-01-26T00:42:16.265Z,-88
2018-01-26T00:44:43.184Z,-88
2018-01-26T00:47:10.270Z,-88
2018-01-26T00:49:37.682Z,-88
2018-01-26T00:52:05.175Z,-92
2018-01-26T00:54:32.880Z,-89
2018-01-26T00:57:05.336Z,-88
2018-01-26T00:59:34.236Z,-88
2018-01-26T01:02:01.211Z,-92
2018-01-26T01:04:28.580Z,-92
2018-01-26T01:06:55.376Z,-88
2018-01-26T01:09:23.119Z,-88
2018-01-26T01:11:55.144Z,-88
2018-01-26T01:14:27.178Z,-88
2018-01-26T01:16:54.066Z,-88
2018-01-26T01:19:21.058Z,-89
2018-01-26T01:21:48.992Z,-89
2018-01-26T01:24:17.425Z,-89
2018-01-26T01:26:44.402Z,-88
2018-01-26T01:29:11.497Z,-88
2018-01-26T01:31:38.308Z,-88
2018-01-26T01:34:06.426Z,-88
2018-01-26T01:36:34.088Z,-88
2018-01-26T01:39:04.164Z,-88
2018-01-26T01:41:36.985Z,-88
2018-01-26T01:44:03.842Z,-88
2018-01-26T01:46:31.160Z,-87
2018-01-26T01:49:16.022Z,-88
2018-01-26T01:51:43.276Z,-90
2018-01-26T01:54:10.894Z,-93
2018-01-26T01:56:37.794Z,-89
2018-01-26T01:59:04.776Z,-89
2018-01-26T02:01:32.464Z,-90
2018-01-26T02:04:00.081Z,-89
2018-01-26T02:06:27.245Z,-89
2018-01-26T02:08:55.288Z,-89
2018-01-26T02:11:22.231Z,-89
2018-01-26T02:13:49.169Z,-89
2018-01-26T02:16:21.422Z,-89
2018-01-26T02:18:49.194Z,-88
2018-01-26T02:21:16.892Z,-89
2018-01-26T02:23:44.925Z,-89
2018-01-26T02:26:11.922Z,-89
2018-01-26T02:28:40.217Z,-88
2018-01-26T02:31:07.141Z,-89
2018-01-26T02:33:35.130Z,-89
2018-01-26T02:36:02.046Z,-90
2018-01-26T02:38:29.932Z,-90
2018-01-26T02:41:02.905Z,-88
2018-01-26T02:43:30.536Z,-89
2018-01-26T02:45:57.465Z,-89
2018-01-26T02:48:25.025Z,-89
2018-01-26T02:50:52.003Z,-89
2018-01-26T02:53:24.069Z,-89
2018-01-26T02:55:52.060Z,-89
2018-01-26T02:58:18.933Z,-89
2018-01-26T03:00:51.129Z,-89
2018-01-26T03:03:21.540Z,-88
2018-01-26T03:05:48.700Z,-88
2018-01-26T03:08:15.693Z,-89
2018-01-26T03:10:44.439Z,-89
2018-01-26T03:13:11.428Z,-88
2018-01-26T03:15:38.239Z,-88
2018-01-26T03:18:05.237Z,-89
2018-01-26T03:20:32.137Z,-88
2018-01-26T03:23:00.457Z,-89
2018-01-26T03:25:27.629Z,-89
2018-01-26T03:27:54.890Z,-89
2018-01-26T03:33:15.783Z,-88
2018-01-26T03:35:43.067Z,-88
2018-01-26T03:38:10.100Z,-88
2018-01-26T03:40:37.267Z,-91
2018-01-26T03:43:04.890Z,-88
2018-01-26T03:45:31.749Z,-87
2018-01-26T03:47:58.755Z,-88
2018-01-26T03:50:25.828Z,-88
2018-01-26T03:52:52.804Z,-89
2018-01-26T03:55:20.531Z,-88
2018-01-26T03:57:47.915Z,-88
2018-01-26T04:00:15.596Z,-89
2018-01-26T04:02:43.985Z,-88
2018-01-26T04:05:11.321Z,-88
2018-01-26T04:07:39.249Z,-88
2018-01-26T04:10:06.131Z,-88
2018-01-26T04:12:33.119Z,-88
2018-01-26T04:15:00.052Z,-88
2018-01-26T04:17:27.097Z,-88
2018-01-26T04:19:54.190Z,-88
2018-01-26T04:22:21.168Z,-88
2018-01-26T04:24:49.017Z,-90
2018-01-26T04:27:16.249Z,-88
2018-01-26T04:29:54.593Z,-89
2018-01-26T04:32:21.881Z,-89
2018-01-26T04:34:49.592Z,-89
2018-01-26T04:37:16.533Z,-88
2018-01-26T04:39:44.226Z,-88
2018-01-26T04:42:12.709Z,-89
2018-01-26T04:44:39.695Z,-88
2018-01-26T04:47:14.692Z,-88
2018-01-26T04:49:47.476Z,-88
2018-01-26T04:52:15.698Z,-88
2018-01-26T04:54:43.802Z,-89
2018-01-26T04:57:16.692Z,-88
2018-01-26T04:59:43.930Z,-88
2018-01-26T05:02:11.164Z,-89
2018-01-26T05:04:38.126Z,-88
2018-01-26T05:07:05.548Z,-88
2018-01-26T05:09:32.402Z,-88
2018-01-26T05:11:59.365Z,-88
2018-01-26T05:14:26.259Z,-88
2018-01-26T05:16:53.924Z,-89
2018-01-26T05:19:20.998Z,-88
2018-01-26T05:21:47.972Z,-89
2018-01-26T05:24:15.740Z,-88
2018-01-26T05:26:48.056Z,-88
2018-01-26T05:29:16.823Z,-89
2018-01-26T05:31:46.526Z,-89
2018-01-26T05:34:21.059Z,-88
2018-01-26T05:36:48.220Z,-88
2018-01-26T05:39:15.530Z,-88
2018-01-26T05:41:43.057Z,-88
2018-01-26T05:44:10.702Z,-88
2018-01-26T05:46:37.542Z,-88
2018-01-26T05:49:04.655Z,-88
2018-01-26T05:51:31.688Z,-88
2018-01-26T05:53:58.677Z,-88
2018-01-26T05:56:26.497Z,-88
2018-01-26T05:58:53.648Z,-88
2018-01-26T06:01:20.752Z,-88
2018-01-26T06:03:53.489Z,-88
2018-01-26T06:06:21.295Z,-88
2018-01-26T06:08:48.651Z,-88
2018-01-26T06:11:21.835Z,-89
2018-01-26T06:13:48.641Z,-88
2018-01-26T06:16:15.695Z,-88
2018-01-26T06:18:43.208Z,-88
2018-01-26T06:21:10.048Z,-89
2018-01-26T06:23:39.001Z,-89
2018-01-26T06:26:06.007Z,-88
2018-01-26T06:28:33.689Z,-88
2018-01-26T06:31:01.853Z,-89
2018-01-26T06:33:29.513Z,-89
2018-01-26T06:35:56.813Z,-89
2018-01-26T06:38:24.290Z,-89
2018-01-26T06:40:51.967Z,-88
2018-01-26T06:43:19.758Z,-89
2018-01-26T06:45:46.678Z,-89
2018-01-26T06:48:13.838Z,-88
2018-01-26T06:50:40.843Z,-88
2018-01-26T06:53:13.020Z,-88
2018-01-26T06:55:39.953Z,-88
2018-01-26T06:58:07.027Z,-88
2018-01-26T07:00:34.240Z,-88
2018-01-26T07:03:06.550Z,-91
2018-01-26T07:05:40.959Z,-91
2018-01-26T07:08:10.165Z,-91
2018-01-26T07:10:39.419Z,-91
2018-01-26T07:41:11.801Z,-91
2018-01-26T07:58:46.094Z,-91
2018-01-26T08:01:13.770Z,-92
2018-01-26T08:03:42.271Z,-92
2018-01-26T08:06:09.786Z,-91
2018-01-26T08:26:39.442Z,-91
2018-01-26T08:58:59.957Z,-92
2018-01-26T09:40:36.176Z,-91
2018-01-26T09:43:04.209Z,-90
2018-01-26T09:45:31.362Z,-92
2018-01-26T09:48:00.189Z,-91
2018-01-26T09:50:27.311Z,-91
2018-01-26T09:52:54.342Z,-93
2018-01-26T09:55:21.608Z,-93
2018-01-26T09:57:48.777Z,-93
2018-01-26T10:00:15.985Z,-93
2018-01-26T10:02:43.107Z,-93
2018-01-26T10:05:10.256Z,-93
2018-01-26T10:07:37.774Z,-93
2018-01-26T10:10:04.888Z,-92
2018-01-26T10:12:42.487Z,-93
2018-01-26T10:15:16.912Z,-92
2018-01-26T10:17:44.150Z,-92
2018-01-26T10:20:11.193Z,-92
2018-01-26T10:22:46.164Z,-93
2018-01-26T10:25:13.294Z,-92
2018-01-26T10:27:41.317Z,-92
2018-01-26T10:30:10.326Z,-93
2018-01-26T10:32:37.408Z,-92
2018-01-26T10:35:04.487Z,-92
2018-01-26T10:37:31.634Z,-93
2018-01-26T10:39:58.691Z,-92
2018-01-26T10:42:29.884Z,-92
2018-01-26T10:44:57.019Z,-93
2018-01-26T10:47:24.080Z,-92
2018-01-26T10:49:52.152Z,-92
2018-01-26T10:52:20.858Z,-91
2018-01-26T10:54:47.868Z,-92
2018-01-26T10:57:18.811Z,-92
2018-01-26T10:59:47.092Z,-92
2018-01-26T11:02:14.060Z,-91
2018-01-26T11:04:41.951Z,-92
2018-01-26T11:07:08.979Z,-92
2018-01-26T11:09:41.227Z,-92
2018-01-26T11:12:08.261Z,-91
2018-01-26T11:14:35.301Z,-91
2018-01-26T11:17:02.333Z,-91
2018-01-26T11:19:30.218Z,-91
2018-01-26T11:22:00.749Z,-92
2018-01-26T11:24:29.326Z,-93
2018-01-26T11:26:56.401Z,-91
2018-01-26T11:29:23.293Z,-91
2018-01-26T11:31:50.159Z,-90
2018-01-26T11:34:17.811Z,-90
2018-01-26T11:36:44.822Z,-92
2018-01-26T11:39:11.813Z,-91
2018-01-26T11:41:40.078Z,-91
2018-01-26T11:44:07.159Z,-93
2018-01-26T11:46:34.154Z,-90
2018-01-26T11:49:01.142Z,-91
2018-01-26T12:12:27.103Z,-90
2018-01-26T12:14:53.977Z,-91
2018-01-26T12:17:20.865Z,-91
2018-01-26T12:19:48.517Z,-92
2018-01-26T12:22:15.509Z,-91
2018-01-26T12:24:42.440Z,-91
2018-01-26T12:27:09.360Z,-92
2018-01-26T12:29:37.184Z,-91
2018-01-26T12:32:05.065Z,-93
2018-01-26T12:34:32.012Z,-92
2018-01-26T12:36:59.992Z,-93
2018-01-26T12:39:26.894Z,-91
2018-01-26T12:41:53.863Z,-91
2018-01-26T12:44:20.824Z,-90
2018-01-26T12:46:47.670Z,-92
2018-01-26T12:49:14.626Z,-92
2018-01-26T12:51:41.867Z,-90
2018-01-26T12:54:08.757Z,-92
2018-01-26T12:56:35.758Z,-91
2018-01-26T12:59:03.417Z,-91
2018-01-26T13:01:30.337Z,-91
2018-01-26T13:03:57.273Z,-91
2018-01-26T13:06:24.209Z,-90
2018-01-26T13:08:51.273Z,-90
2018-01-26T13:11:18.241Z,-92
2018-01-26T13:13:45.169Z,-91
2018-01-26T13:16:13.578Z,-91
2018-01-26T13:39:24.054Z,-93
2018-01-26T13:41:51.174Z,-93
2018-01-26T13:44:18.242Z,-93
2018-01-26T13:46:45.373Z,-93
2018-01-26T13:49:12.359Z,-94
2018-01-26T13:51:40.126Z,-93
2018-01-26T13:54:07.152Z,-93
2018-01-26T13:56:34.321Z,-93
2018-01-26T13:59:01.963Z,-93
2018-01-26T14:01:29.892Z,-93
2018-01-26T14:03:56.879Z,-93
2018-01-26T14:06:23.872Z,-93
2018-01-26T14:08:50.932Z,-93
2018-01-26T14:11:17.938Z,-93
2018-01-26T14:13:45.091Z,-93
2018-01-26T14:16:17.134Z,-92
2018-01-26T14:18:44.100Z,-93
2018-01-26T14:21:14.501Z,-92
2018-01-26T14:23:42.699Z,-92
2018-01-26T14:26:09.634Z,-92
2018-01-26T14:28:42.158Z,-92
2018-01-26T14:31:16.802Z,-91
2018-01-26T14:33:44.652Z,-92
2018-01-26T14:36:11.711Z,-92
2018-01-26T14:38:38.779Z,-92
2018-01-26T14:41:07.510Z,-91
2018-01-26T14:43:39.218Z,-92
2018-01-26T14:46:07.323Z,-90
2018-01-26T14:48:35.895Z,-92
2018-01-26T14:51:03.619Z,-92
2018-01-26T14:53:30.662Z,-93
2018-01-26T14:56:03.555Z,-92
2018-01-26T14:58:30.488Z,-92
2018-01-26T15:00:58.204Z,-92
2018-01-26T15:03:25.279Z,-92
2018-01-26T15:05:52.305Z,-92
2018-01-26T15:08:20.045Z,-92
2018-01-26T15:10:48.624Z,-93
2018-01-26T15:13:15.898Z,-92
2018-01-26T15:15:43.281Z,-92
2018-01-26T15:18:10.471Z,-92
2018-01-26T15:20:37.542Z,-92
2018-01-26T15:23:08.335Z,-91
2018-01-26T15:25:37.518Z,-92
2018-01-26T15:28:05.201Z,-91
2018-01-26T15:30:33.061Z,-91
2018-01-26T15:33:00.954Z,-91
2018-01-26T15:35:27.981Z,-91
2018-01-26T15:37:57.280Z,-92
2018-01-26T15:40:24.261Z,-92
2018-01-26T15:42:51.382Z,-92
2018-01-26T15:45:19.084Z,-91
2018-01-26T15:47:46.288Z,-92
2018-01-26T15:50:13.342Z,-92
2018-01-26T15:52:40.795Z,-92
2018-01-26T15:55:07.829Z,-91
2018-01-26T15:57:34.894Z,-91
2018-01-26T16:00:01.963Z,-92
2018-01-26T16:02:29.172Z,-92
2018-01-26T16:04:56.170Z,-92
2018-01-26T16:07:23.394Z,-92
2018-01-26T16:09:50.831Z,-92
2018-01-26T16:12:18.569Z,-92
2018-01-26T16:14:45.483Z,-91
2018-01-26T16:17:13.335Z,-91
2018-01-26T16:19:41.490Z,-94
2018-01-26T16:22:08.403Z,-91
2018-01-26T16:24:35.244Z,-92
2018-01-26T16:27:03.096Z,-91
2018-01-26T16:29:30.667Z,-91
2018-01-26T16:31:57.675Z,-91
2018-01-26T16:34:24.574Z,-91
2018-01-26T16:36:51.455Z,-92
2018-01-26T16:39:19.572Z,-91
2018-01-26T16:41:47.404Z,-92
2018-01-26T16:44:14.483Z,-93
2018-01-26T16:46:42.951Z,-94
2018-01-26T16:49:09.801Z,-92
2018-01-26T16:51:36.726Z,-93
2018-01-26T16:54:03.695Z,-91
2018-01-26T16:56:33.425Z,-91
2018-01-26T16:59:00.352Z,-91
2018-01-26T17:01:27.244Z,-91
2018-01-26T17:03:54.165Z,-92
2018-01-26T17:06:21.256Z,-91
2018-01-26T17:08:48.929Z,-91
2018-01-26T17:11:15.854Z,-91
2018-01-26T17:13:43.461Z,-91
2018-01-26T17:16:11.949Z,-91
2018-01-26T17:18:38.945Z,-91
2018-01-26T17:21:06.575Z,-90
2018-01-26T17:23:33.426Z,-91
2018-01-26T17:26:00.298Z,-91
2018-01-26T17:28:27.170Z,-91
2018-01-26T17:30:54.221Z,-91
2018-01-26T17:33:21.086Z,-91
2018-01-26T17:35:48.102Z,-91
2018-01-26T17:38:15.018Z,-91
2018-01-26T17:40:41.961Z,-91
2018-01-26T17:43:10.595Z,-91
2018-01-26T17:45:37.572Z,-90
2018-01-26T17:48:04.496Z,-90
2018-01-26T17:50:31.358Z,-90
2018-01-26T17:52:59.009Z,-90
2018-01-26T17:55:27.245Z,-91
2018-01-26T17:57:54.614Z,-90
2018-01-26T18:00:21.672Z,-90
2018-01-26T18:02:49.950Z,-90
2018-01-26T18:05:17.546Z,-90
2018-01-26T18:07:44.556Z,-90
2018-01-26T18:10:11.876Z,-89
2018-01-26T18:12:41.023Z,-91
2018-01-26T18:15:10.584Z,-90
2018-01-26T18:17:39.286Z,-90
2018-01-26T18:20:07.449Z,-90
2018-01-26T18:22:35.009Z,-90
2018-01-26T18:25:01.903Z,-91
2018-01-26T18:27:29.379Z,-90
2018-01-26T18:29:58.261Z,-90
2018-01-26T18:41:34.346Z,-90
2018-01-26T18:44:03.396Z,-90
2018-01-26T18:46:32.038Z,-90
2018-01-26T18:49:00.366Z,-91
2018-01-26T18:51:28.079Z,-90
2018-01-26T18:53:55.003Z,-90
2018-01-26T18:56:21.945Z,-91
2018-01-26T18:58:49.675Z,-90
2018-01-26T19:01:17.579Z,-90
2018-01-26T19:03:45.340Z,-90
2018-01-26T19:06:12.469Z,-90
2018-01-26T19:08:40.787Z,-90
2018-01-26T19:11:09.526Z,-90
2018-01-26T19:13:38.136Z,-90
2018-01-26T19:16:06.405Z,-90
2018-01-26T19:18:35.143Z,-89
2018-01-26T19:21:03.891Z,-90
2018-01-26T19:23:33.536Z,-90
2018-01-26T19:26:02.538Z,-89
2018-01-26T19:28:31.500Z,-89
2018-01-26T19:31:00.194Z,-90
2018-01-26T19:33:29.048Z,-89
2018-01-26T19:35:58.723Z,-90
2018-01-26T19:38:32.885Z,-89
2018-01-26T19:41:02.486Z,-89
2018-01-26T19:43:31.383Z,-89
2018-01-26T19:46:00.144Z,-89
2018-01-26T19:48:28.863Z,-89
2018-01-26T19:50:57.781Z,-89
2018-01-26T19:53:26.751Z,-89
2018-01-26T19:55:56.284Z,-89
2018-01-26T19:58:25.271Z,-89
2018-01-26T20:00:54.188Z,-89
2018-01-26T20:03:32.973Z,-90
2018-01-26T20:34:54.730Z,-90
2018-01-26T20:37:24.338Z,-90
2018-01-26T20:39:51.933Z,-90
2018-01-26T20:42:20.670Z,-90
2018-01-26T20:44:49.594Z,-90
2018-01-26T20:47:18.422Z,-90
2018-01-26T20:49:47.351Z,-90
2018-01-26T20:52:16.932Z,-90
2018-01-26T20:54:45.879Z,-90
2018-01-26T20:57:15.618Z,-90
2018-01-26T20:59:44.672Z,-90
2018-01-26T21:02:13.539Z,-90
2018-01-26T21:04:42.417Z,-90
2018-01-26T21:07:11.413Z,-90
2018-01-26T21:09:40.373Z,-90
2018-01-26T21:12:09.467Z,-90
2018-01-26T21:14:38.549Z,-90
2018-01-26T21:17:07.380Z,-90
2018-01-26T21:19:37.177Z,-90
2018-01-26T21:22:06.624Z,-90
2018-01-26T21:24:36.277Z,-88
2018-01-26T21:27:04.885Z,-89
2018-01-26T21:29:34.007Z,-89
2018-01-26T21:32:01.489Z,-89
2018-01-26T21:34:29.675Z,-90
2018-01-26T21:36:58.546Z,-90
2018-01-26T21:39:26.427Z,-89
2018-01-26T21:41:55.033Z,-90
2018-01-26T21:44:21.958Z,-90
2018-01-26T21:46:50.045Z,-89
2018-01-26T21:49:22.019Z,-90
2018-01-26T21:51:50.409Z,-91
2018-01-26T21:54:19.586Z,-91
2018-01-26T21:56:48.036Z,-91
2018-01-26T21:59:16.518Z,-91
2018-01-26T22:01:44.306Z,-91
2018-01-26T22:04:12.160Z,-91
2018-01-26T22:06:46.195Z,-90
2018-01-26T22:09:13.059Z,-90
2018-01-26T22:11:40.180Z,-90
2018-01-26T22:14:07.158Z,-90
2018-01-26T22:16:35.402Z,-91
2018-01-26T22:19:03.373Z,-90
2018-01-26T22:21:33.967Z,-90
2018-01-26T22:24:01.064Z,-90
2018-01-26T22:26:27.925Z,-90
2018-01-26T22:28:54.756Z,-91
2018-01-26T22:31:22.507Z,-90
2018-01-26T22:33:50.127Z,-90
2018-01-26T22:36:18.152Z,-90
2018-01-26T22:38:45.200Z,-90
2018-01-26T22:41:12.331Z,-90
2018-01-26T22:43:39.904Z,-90
2018-01-26T22:46:06.745Z,-90
2018-01-26T22:48:33.538Z,-90
2018-01-26T22:51:01.113Z,-90
2018-01-26T22:53:30.475Z,-90
2018-01-26T22:55:57.314Z,-90
2018-01-26T22:58:24.179Z,-90
2018-01-26T23:00:51.798Z,-90
2018-01-26T23:03:18.641Z,-90
2018-01-26T23:05:45.504Z,-90
2018-01-26T23:08:12.349Z,-90
2018-01-26T23:10:40.138Z,-90
2018-01-26T23:13:07.005Z,-90
2018-01-26T23:15:33.838Z,-91
2018-01-26T23:18:00.640Z,-90
2018-01-26T23:20:27.464Z,-91
2018-01-26T23:22:54.409Z,-91
2018-01-26T23:25:21.303Z,-91
2018-01-26T23:27:48.912Z,-91
2018-01-26T23:30:15.860Z,-90
2018-01-26T23:32:42.789Z,-91
2018-01-26T23:35:09.579Z,-90
2018-01-26T23:37:36.435Z,-90
2018-01-26T23:42:46.307Z,-90
2018-01-26T23:45:13.169Z,-90
2018-01-26T23:47:40.018Z,-90
2018-01-26T23:50:07.643Z,-90
2018-01-26T23:52:34.479Z,-90
2018-01-26T23:55:01.294Z,-91
2018-01-26T23:57:28.095Z,-90
2018-01-26T23:59:54.933Z,-90
